Time;durP1;ratioP1;P1;durP2;ratioP2;P2;SDS_P1;SDS_P2;PMS_P1;PMS_P2;Temp;Humidity;BMP_temperature;BMP_pressure;BME280_temperature;BME280_humidity;BME280_pressure;Samples;Min_cycle;Max_cycle;Signal;HPM_P1;HPM_P2
2021/10/07 00:02:55;;;;;;;0.20;0.10;;;17.20;99.90;;;;;;20655043;28;20229;-67
2021/10/07 00:12:59;;;;;;;0.47;0.47;;;17.30;99.90;;;;;;20654903;28;20290;-67
2021/10/07 00:23:04;;;;;;;0.20;0.10;;;17.30;99.90;;;;;;20653888;28;20297;-68
2021/10/07 00:33:14;;;;;;;0.20;0.17;;;17.30;99.90;;;;;;20659550;28;20290;-68
2021/10/07 00:43:19;;;;;;;8.70;0.53;;;17.20;99.90;;;;;;20669294;28;20803;-69
2021/10/07 00:53:23;;;;;;;0.20;0.10;;;17.30;99.90;;;;;;20667349;28;20577;-68
2021/10/07 01:03:33;;;;;;;0.20;0.10;;;17.30;99.90;;;;;;20681025;23;20315;-66
2021/10/07 01:13:39;;;;;;;0.20;0.00;;;17.20;99.90;;;;;;20667517;28;20661;-66
2021/10/07 01:23:47;;;;;;;0.30;0.30;;;17.10;99.90;;;;;;20676461;28;20309;-65
2021/10/07 01:33:51;;;;;;;0.20;0.00;;;17.00;99.90;;;;;;20722374;28;20286;-65
2021/10/07 01:43:56;;;;;;;0.20;0.00;;;17.00;99.90;;;;;;20664813;28;20238;-66
2021/10/07 01:54:00;;;;;;;0.20;0.10;;;17.10;99.90;;;;;;20662991;28;20736;-66
2021/10/07 02:04:06;;;;;;;0.40;0.10;;;17.30;99.90;;;;;;20676414;23;20723;-67
2021/10/07 02:14:10;;;;;;;0.20;0.10;;;17.30;99.90;;;;;;20663070;28;20732;-69
2021/10/07 02:24:15;;;;;;;0.20;0.10;;;16.90;99.90;;;;;;20662777;28;20231;-68
2021/10/07 02:34:19;;;;;;;0.30;0.20;;;16.70;99.90;;;;;;20659875;28;20645;-69
2021/10/07 02:44:24;;;;;;;0.60;0.50;;;16.60;99.90;;;;;;20659178;28;20552;-68
2021/10/07 02:54:27;;;;;;;0.30;0.20;;;16.50;99.90;;;;;;20659416;28;20214;-69
2021/10/07 03:04:32;;;;;;;0.20;0.10;;;16.50;99.90;;;;;;20670391;23;20615;-67
2021/10/07 03:14:39;;;;;;;3.00;0.87;;;16.60;99.90;;;;;;20658806;28;20199;-68
2021/10/07 03:24:45;;;;;;;0.60;0.50;;;16.80;99.90;;;;;;20674513;28;20644;-66
2021/10/07 03:34:54;;;;;;;3.90;0.80;;;16.90;99.90;;;;;;20703021;28;20200;-66
2021/10/07 03:45:01;;;;;;;0.20;0.10;;;17.00;99.90;;;;;;20653834;28;20582;-66
2021/10/07 03:55:05;;;;;;;0.20;0.00;;;17.00;99.90;;;;;;20587311;28;20200;-66
2021/10/07 04:05:11;;;;;;;0.20;0.10;;;17.10;99.90;;;;;;20633588;23;20238;-68
2021/10/07 04:15:15;;;;;;;0.20;0.00;;;17.00;99.90;;;;;;20652956;28;20207;-69
2021/10/07 04:25:20;;;;;;;0.40;0.40;;;16.80;99.90;;;;;;20675841;28;20245;-70
2021/10/07 04:35:24;;;;;;;0.20;0.20;;;16.50;99.90;;;;;;20694253;28;20540;-70
2021/10/07 04:45:32;;;;;;;0.20;0.10;;;16.20;99.90;;;;;;20651387;28;20223;-72
2021/10/07 04:55:35;;;;;;;8.50;0.40;;;16.00;99.90;;;;;;20652592;28;20906;-70
2021/10/07 05:05:40;;;;;;;0.20;0.10;;;15.70;99.90;;;;;;20652425;28;20238;-70
2021/10/07 05:15:44;;;;;;;0.20;0.10;;;15.40;99.90;;;;;;20652726;28;20274;-69
2021/10/07 05:25:49;;;;;;;2.37;0.70;;;15.30;99.90;;;;;;20691960;28;20546;-71
2021/10/07 05:35:53;;;;;;;0.27;0.27;;;15.30;99.90;;;;;;20746951;28;20230;-71
2021/10/07 05:45:58;;;;;;;0.40;0.30;;;15.30;99.90;;;;;;20744858;28;20223;-69
2021/10/07 05:56:01;;;;;;;0.37;0.37;;;15.30;99.90;;;;;;20741867;28;20238;-68
2021/10/07 06:06:06;;;;;;;0.40;0.20;;;15.40;99.90;;;;;;20735016;28;20235;-70
2021/10/07 06:16:10;;;;;;;0.20;0.10;;;15.60;99.90;;;;;;20738663;28;20829;-73
2021/10/07 06:26:15;;;;;;;0.57;0.20;;;15.70;99.90;;;;;;20709859;28;20220;-73
2021/10/07 06:36:19;;;;;;;0.63;0.63;;;15.50;99.90;;;;;;20659521;28;20210;-72
2021/10/07 06:46:25;;;;;;;0.23;0.23;;;15.70;99.90;;;;;;20659117;28;20326;-71
2021/10/07 06:56:33;;;;;;;0.20;0.03;;;15.80;99.90;;;;;;20658425;28;20333;-74
2021/10/07 07:06:38;;;;;;;0.20;0.20;;;15.80;99.90;;;;;;20656410;28;20645;-68
2021/10/07 07:16:42;;;;;;;0.40;0.40;;;16.00;99.90;;;;;;20655417;28;20196;-70
2021/10/07 07:27:11;;;;;;;0.97;0.50;;;16.50;99.90;;;;;;20681896;28;20652;-69
2021/10/07 07:37:15;;;;;;;1.90;0.43;;;16.70;99.90;;;;;;20649820;28;20298;-69
2021/10/07 07:47:23;;;;;;;0.20;0.20;;;16.90;99.90;;;;;;20635913;28;20204;-70
2021/10/07 07:57:26;;;;;;;0.20;0.20;;;17.30;99.90;;;;;;20651173;28;20254;-73
2021/10/07 08:07:32;;;;;;;0.60;0.20;;;17.70;99.90;;;;;;20630825;28;20783;-70
2021/10/07 08:17:37;;;;;;;0.37;0.37;;;18.00;99.90;;;;;;20648872;28;20215;-68
2021/10/07 08:27:43;;;;;;;0.30;0.17;;;18.40;99.90;;;;;;20690070;28;20191;-67
2021/10/07 08:37:47;;;;;;;0.20;0.00;;;18.90;99.90;;;;;;20732789;28;20309;-67
2021/10/07 08:47:59;;;;;;;0.20;0.10;;;19.30;99.90;;;;;;20691838;28;20210;-69
2021/10/07 08:58:04;;;;;;;0.20;0.10;;;19.70;99.90;;;;;;20582949;28;20692;-68
2021/10/07 09:08:09;;;;;;;0.30;0.30;;;19.80;99.90;;;;;;20581399;28;21108;-67
2021/10/07 09:18:14;;;;;;;1.93;1.53;;;20.50;99.90;;;;;;20579278;28;20442;-69
2021/10/07 09:28:20;;;;;;;1.50;0.20;;;20.80;99.90;;;;;;20639931;28;20438;-69
2021/10/07 09:38:24;;;;;;;0.35;0.10;;;21.10;99.90;;;;;;20664176;28;20298;-66
2021/10/07 09:48:38;;;;;;;0.20;0.10;;;21.70;99.90;;;;;;20662962;28;20587;-67
2021/10/07 09:58:44;;;;;;;0.50;0.30;;;21.70;99.90;;;;;;20661543;28;21288;-67
2021/10/07 10:08:51;;;;;;;2.13;1.13;;;21.90;99.90;;;;;;20661366;28;20625;-67
2021/10/07 10:18:59;;;;;;;0.20;0.00;;;21.70;99.90;;;;;;20660841;28;20220;-68
2021/10/07 10:29:05;;;;;;;0.40;0.30;;;22.30;99.90;;;;;;20712458;28;20205;-67
2021/10/07 10:39:14;;;;;;;0.98;0.73;;;22.20;99.90;;;;;;20740238;28;20333;-67
2021/10/07 10:49:20;;;;;;;0.20;0.20;;;22.90;99.90;;;;;;20738578;28;20194;-68
2021/10/07 10:59:25;;;;;;;0.30;0.30;;;23.00;99.90;;;;;;20738037;28;20222;-69
2021/10/07 11:10:00;;;;;;;0.65;0.38;;;23.80;99.90;;;;;;20737768;28;20213;-68
2021/10/07 11:20:06;;;;;;;1.38;0.40;;;24.60;99.90;;;;;;20711696;28;20351;-68
2021/10/07 11:30:15;;;;;;;2.38;0.77;;;24.50;99.90;;;;;;20717380;28;20195;-71
2021/10/07 11:40:26;;;;;;;0.30;0.20;;;25.10;99.90;;;;;;20736055;28;20219;-68
2021/10/07 11:50:31;;;;;;;5.57;0.68;;;24.60;99.90;;;;;;20735544;28;20276;-68
2021/10/07 12:00:40;;;;;;;0.40;0.28;;;25.10;99.90;;;;;;20732849;28;20603;-66
2021/10/07 12:10:48;;;;;;;0.85;0.75;;;25.40;99.90;;;;;;20732729;28;20266;-68
2021/10/07 12:21:10;;;;;;;0.20;0.10;;;25.40;99.90;;;;;;20698256;28;20238;-67
2021/10/07 12:31:21;;;;;;;0.60;0.50;;;25.40;99.90;;;;;;20710129;28;20627;-67
2021/10/07 12:41:33;;;;;;;0.90;0.70;;;25.70;99.90;;;;;;20727690;28;20656;-69
2021/10/07 12:51:44;;;;;;;0.40;0.32;;;25.20;99.90;;;;;;20731534;28;20211;-67
2021/10/07 13:01:48;;;;;;;6.03;0.65;;;25.90;99.90;;;;;;20730483;28;20562;-69
2021/10/07 13:11:54;;;;;;;0.25;0.25;;;26.30;99.90;;;;;;20730645;28;20583;-68
2021/10/07 13:21:57;;;;;;;2.38;0.63;;;26.30;99.90;;;;;;20730984;28;20588;-68
2021/10/07 13:32:06;;;;;;;1.08;0.28;;;26.70;99.90;;;;;;20651427;28;20212;-67
2021/10/07 13:42:12;;;;;;;1.88;0.65;;;26.40;99.90;;;;;;20623595;28;20272;-69
2021/10/07 13:52:25;;;;;;;0.50;0.47;;;28.20;99.90;;;;;;20651538;28;20291;-71
2021/10/07 14:02:29;;;;;;;0.60;0.52;;;27.60;99.90;;;;;;20658161;28;20239;-68
2021/10/07 14:12:34;;;;;;;2.00;0.20;;;27.90;99.90;;;;;;20659044;28;20200;-67
2021/10/07 14:22:38;;;;;;;1.13;0.60;;;27.20;99.90;;;;;;20657135;28;20235;-68
2021/10/07 14:32:45;;;;;;;0.20;0.20;;;28.70;99.90;;;;;;20736462;28;20278;-70
2021/10/07 14:42:52;;;;;;;3.03;0.38;;;28.70;99.90;;;;;;20735443;28;20226;-68
2021/10/07 14:52:57;;;;;;;1.45;0.30;;;27.80;99.90;;;;;;20734218;28;20210;-69
2021/10/07 15:03:01;;;;;;;0.35;0.35;;;28.90;99.90;;;;;;20734657;28;20627;-67
2021/10/07 15:13:08;;;;;;;0.95;0.28;;;28.20;99.90;;;;;;20733568;28;20195;-69
2021/10/07 15:23:14;;;;;;;0.50;0.40;;;28.00;99.90;;;;;;20686581;28;20273;-67
2021/10/07 15:33:22;;;;;;;0.55;0.55;;;26.70;99.90;;;;;;20732016;28;20660;-68
2021/10/07 15:43:25;;;;;;;6.57;0.40;;;25.30;99.90;;;;;;20729602;28;20254;-68
2021/10/07 15:53:31;;;;;;;2.05;0.52;;;23.90;99.90;;;;;;20730235;28;20198;-68
2021/10/07 16:03:35;;;;;;;18.73;0.90;;;23.70;99.90;;;;;;20730330;28;20226;-68
2021/10/07 16:13:42;;;;;;;0.20;0.10;;;22.90;99.90;;;;;;20729584;28;20202;-69
2021/10/07 16:23:46;;;;;;;0.83;0.20;;;22.30;99.90;;;;;;20683933;28;20252;-68
2021/10/07 16:33:53;;;;;;;2.63;1.23;;;22.30;99.90;;;;;;20704894;28;20663;-68
2021/10/07 16:43:57;;;;;;;0.20;0.10;;;22.00;99.90;;;;;;20647635;28;20226;-69
2021/10/07 16:54:03;;;;;;;6.23;5.23;;;21.80;99.90;;;;;;20645373;28;20306;-67
2021/10/07 17:04:07;;;;;;;0.30;0.30;;;21.70;99.90;;;;;;20646208;28;20282;-66
2021/10/07 17:14:12;;;;;;;0.20;0.10;;;21.40;99.90;;;;;;20651708;28;20195;-69
2021/10/07 17:24:16;;;;;;;0.60;0.20;;;21.40;99.90;;;;;;20675778;28;20227;-67
2021/10/07 17:34:21;;;;;;;1.07;1.03;;;21.20;99.90;;;;;;20713061;28;20282;-68
2021/10/07 17:44:25;;;;;;;0.20;0.07;;;21.00;99.90;;;;;;20661036;28;20219;-68
2021/10/07 17:54:30;;;;;;;0.20;0.10;;;20.90;99.90;;;;;;20660132;28;20188;-68
2021/10/07 18:04:36;;;;;;;0.20;0.20;;;20.90;99.90;;;;;;20660160;28;20236;-68
2021/10/07 18:14:42;;;;;;;0.30;0.30;;;20.90;99.90;;;;;;20580717;28;20315;-70
2021/10/07 18:24:46;;;;;;;0.30;0.17;;;20.90;99.90;;;;;;20591805;28;20692;-68
2021/10/07 18:34:54;;;;;;;2.53;0.90;;;20.90;99.90;;;;;;20656325;28;20249;-66
2021/10/07 18:44:58;;;;;;;0.20;0.20;;;20.40;99.90;;;;;;20655464;28;20223;-66
2021/10/07 18:55:03;;;;;;;1.57;0.80;;;20.10;99.90;;;;;;20656657;28;20563;-69
2021/10/07 19:05:08;;;;;;;1.07;0.90;;;19.60;99.90;;;;;;20655974;28;20235;-69
2021/10/07 19:15:13;;;;;;;0.57;0.57;;;19.50;99.90;;;;;;20652561;28;20223;-68
2021/10/07 19:25:18;;;;;;;0.23;0.13;;;19.60;99.90;;;;;;20674034;28;20222;-68
2021/10/07 19:35:23;;;;;;;0.50;0.30;;;19.60;99.90;;;;;;20696463;28;20523;-68
2021/10/07 19:45:31;;;;;;;0.60;0.53;;;19.50;99.90;;;;;;20652320;28;20277;-70
2021/10/07 19:55:36;;;;;;;0.20;0.13;;;19.30;99.90;;;;;;20614975;28;20195;-69
2021/10/07 20:05:41;;;;;;;0.50;0.50;;;19.10;99.90;;;;;;20619778;28;20268;-70
2021/10/07 20:15:46;;;;;;;0.20;0.00;;;18.80;99.90;;;;;;20650830;28;20716;-69
2021/10/07 20:25:50;;;;;;;2.33;0.67;;;18.70;99.90;;;;;;20677574;28;20238;-70
2021/10/07 20:36:00;;;;;;;0.40;0.40;;;18.70;99.90;;;;;;20689501;28;20242;-69
2021/10/07 20:46:04;;;;;;;0.30;0.20;;;18.70;99.90;;;;;;20650574;28;20231;-69
2021/10/07 20:56:09;;;;;;;0.20;0.20;;;18.70;99.90;;;;;;20661602;28;20594;-71
2021/10/07 21:06:13;;;;;;;0.83;0.50;;;18.50;99.90;;;;;;20666480;28;20270;-69
2021/10/07 21:16:18;;;;;;;0.20;0.00;;;18.50;99.90;;;;;;20668724;28;20209;-71
2021/10/07 21:26:22;;;;;;;0.60;0.60;;;18.70;99.90;;;;;;20698017;28;20289;-72
2021/10/07 21:36:26;;;;;;;0.20;0.10;;;18.70;99.90;;;;;;20701877;28;20274;-71
2021/10/07 21:46:30;;;;;;;0.20;0.00;;;18.60;99.90;;;;;;20666151;28;20318;-72
2021/10/07 21:56:35;;;;;;;0.20;0.10;;;19.00;99.90;;;;;;20665359;28;20287;-70
2021/10/07 22:06:39;;;;;;;0.40;0.10;;;19.50;99.90;;;;;;20629734;28;20365;-69
2021/10/07 22:16:44;;;;;;;0.20;0.10;;;20.00;99.90;;;;;;20621326;28;20219;-71
2021/10/07 22:26:48;;;;;;;0.20;0.20;;;20.00;99.90;;;;;;20612910;28;20224;-70
2021/10/07 22:36:54;;;;;;;1.60;0.27;;;20.40;99.90;;;;;;20629598;28;20290;-71
2021/10/07 22:46:57;;;;;;;0.20;0.10;;;20.30;99.90;;;;;;20661607;28;20318;-71
2021/10/07 22:57:02;;;;;;;0.20;0.07;;;20.00;99.90;;;;;;20660145;28;20286;-71
2021/10/07 23:07:06;;;;;;;0.20;0.20;;;19.90;99.90;;;;;;20658794;28;20570;-69
2021/10/07 23:17:11;;;;;;;0.20;0.20;;;19.50;99.90;;;;;;20656389;28;20681;-69
2021/10/07 23:27:15;;;;;;;0.20;0.10;;;19.00;99.90;;;;;;20694592;28;20253;-68
2021/10/07 23:37:20;;;;;;;0.20;0.10;;;18.60;99.90;;;;;;20685810;28;20203;-70
2021/10/07 23:47:23;;;;;;;0.20;0.10;;;18.00;99.90;;;;;;20656252;28;20809;-70
2021/10/07 23:57:28;;;;;;;0.20;0.13;;;17.30;99.90;;;;;;20655774;28;20200;-69
